This is the latest recevied weather packets stored in our database for station/object N4DRV. If no packets are shown the sender has not sent any weather packets the latest 10 day(s).
| Time | Temp. | Humidity | Pressure | Rain* | Wind** | Luminosity | Snow |
|---|---|---|---|---|---|---|---|
| 1777247732 | 24.44° C | 63% | 1014.1 hPa | 0 mm | - | - | - |
| 1777238732 | 26.11° C | 62% | 1013.1 hPa | 0 mm | - | - | - |
| 1777237573 | 26.11° C | 63% | 1013.1 hPa | 0 mm | - | - | - |
| 1777236926 | 26.11° C | 63% | 1013 hPa | 0 mm | - | - | - |
| 1777233943 | 25.56° C | 66% | 1013.2 hPa | 0 mm | - | - | - |
| 1777231518 | 25° C | 70% | 1013.5 hPa | 0 mm | - | - | - |
| 1777230376 | 24.44° C | 72% | 1013.9 hPa | 0 mm | - | - | - |
| 1777226122 | 23.33° C | 75% | 1014.4 hPa | 0 mm | - | - | - |
| 1777224924 | 22.78° C | 76% | 1014.5 hPa | 0 mm | - | - | - |
| 1777222516 | 22.22° C | 80% | 1014.6 hPa | 0 mm | - | - | - |
| 1777221333 | 22.22° C | 81% | 1014.8 hPa | 0 mm | - | - | - |
| 1777220715 | 21.67° C | 82% | 1014.8 hPa | 0 mm | - | - | - |
| 1777217125 | 19.44° C | 91% | 1014.8 hPa | 0 mm | - | - | - |
| 1777214721 | 17.78° C | 97% | 1014.8 hPa | 0 mm | - | - | - |
| 1777211129 | 16.11° C | 99% | 1014.2 hPa | 0 mm | - | - | - |
| 1777208143 | 15.56° C | 99% | 1013.9 hPa | 0 mm | - | - | - |
| 1777202129 | 16.11° C | 99% | 1013.3 hPa | 0 mm | - | - | - |
| 1777199744 | 15.56° C | 98% | 1012.8 hPa | 0 mm | - | - | - |
| 1777196117 | 16.11° C | 98% | 1012 hPa | 0 mm | - | - | - |
| 1777195535 | 16.67° C | 98% | 1011.9 hPa | 0 mm | - | - | - |
| 1777191928 | 17.22° C | 98% | 1011.8 hPa | 0 mm | - | - | - |
| 1777187139 | 17.78° C | 98% | 1011.7 hPa | 0 mm | - | - | - |
| 1777176351 | 18.33° C | 97% | 1011.1 hPa | 0 mm | - | - | - |
| 1777175126 | 18.33° C | 97% | 1011.5 hPa | 0 mm | - | - | - |
| 1777173342 | 18.33° C | 96% | 1011.8 hPa | 0 mm | - | - | - |
* Rain latest hour (hover to see other rain measurements)
** Current wind speed in m/s (hover to see current wind gust speed)